sensor_id;sensor_type;location;lat;lon;timestamp;P1;durP1;ratioP1;P2;durP2;ratioP2
28353;SDS011;15603;50.878;8.036;2022-11-20T00:01:14;16.02;;;7.35;;
28353;SDS011;15603;50.878;8.036;2022-11-20T00:03:43;16.15;;;6.93;;
28353;SDS011;15603;50.878;8.036;2022-11-20T00:06:12;12.55;;;6.60;;
28353;SDS011;15603;50.878;8.036;2022-11-20T00:08:44;21.67;;;8.88;;
28353;SDS011;15603;50.878;8.036;2022-11-20T00:11:12;15.70;;;6.80;;
28353;SDS011;15603;50.878;8.036;2022-11-20T00:16:12;15.60;;;6.55;;
28353;SDS011;15603;50.878;8.036;2022-11-20T00:18:40;13.30;;;6.35;;
28353;SDS011;15603;50.878;8.036;2022-11-20T00:21:27;17.88;;;7.45;;
28353;SDS011;15603;50.878;8.036;2022-11-20T00:23:56;15.40;;;6.90;;
28353;SDS011;15603;50.878;8.036;2022-11-20T00:26:24;13.55;;;7.05;;
28353;SDS011;15603;50.878;8.036;2022-11-20T00:28:53;12.52;;;6.47;;
28353;SDS011;15603;50.878;8.036;2022-11-20T00:31:21;11.40;;;6.18;;
28353;SDS011;15603;50.878;8.036;2022-11-20T00:33:49;14.13;;;6.05;;
28353;SDS011;15603;50.878;8.036;2022-11-20T00:36:17;12.68;;;6.32;;
28353;SDS011;15603;50.878;8.036;2022-11-20T00:38:45;13.65;;;6.57;;
28353;SDS011;15603;50.878;8.036;2022-11-20T00:41:14;11.55;;;6.20;;
28353;SDS011;15603;50.878;8.036;2022-11-20T00:43:42;19.02;;;7.63;;
28353;SDS011;15603;50.878;8.036;2022-11-20T00:46:14;15.63;;;7.88;;
28353;SDS011;15603;50.878;8.036;2022-11-20T00:48:43;15.57;;;7.13;;
28353;SDS011;15603;50.878;8.036;2022-11-20T00:51:11;14.35;;;6.88;;
28353;SDS011;15603;50.878;8.036;2022-11-20T00:53:39;16.58;;;7.25;;
28353;SDS011;15603;50.878;8.036;2022-11-20T00:56:09;14.85;;;7.22;;
28353;SDS011;15603;50.878;8.036;2022-11-20T00:58:38;13.30;;;6.18;;
28353;SDS011;15603;50.878;8.036;2022-11-20T01:01:06;14.63;;;6.80;;
28353;SDS011;15603;50.878;8.036;2022-11-20T01:03:37;12.82;;;6.97;;
28353;SDS011;15603;50.878;8.036;2022-11-20T01:06:06;16.75;;;6.95;;
28353;SDS011;15603;50.878;8.036;2022-11-20T01:08:38;17.05;;;7.60;;
28353;SDS011;15603;50.878;8.036;2022-11-20T01:11:07;16.23;;;7.75;;
28353;SDS011;15603;50.878;8.036;2022-11-20T01:13:35;15.80;;;7.10;;
28353;SDS011;15603;50.878;8.036;2022-11-20T01:16:12;17.27;;;7.40;;
28353;SDS011;15603;50.878;8.036;2022-11-20T01:18:45;14.75;;;7.32;;
28353;SDS011;15603;50.878;8.036;2022-11-20T01:21:15;15.32;;;7.25;;
28353;SDS011;15603;50.878;8.036;2022-11-20T01:23:45;14.38;;;7.82;;
28353;SDS011;15603;50.878;8.036;2022-11-20T01:26:16;17.17;;;7.05;;
28353;SDS011;15603;50.878;8.036;2022-11-20T01:28:53;13.80;;;6.63;;
28353;SDS011;15603;50.878;8.036;2022-11-20T01:31:26;14.05;;;7.55;;
28353;SDS011;15603;50.878;8.036;2022-11-20T01:33:54;13.43;;;6.80;;
28353;SDS011;15603;50.878;8.036;2022-11-20T01:36:23;13.18;;;7.13;;
28353;SDS011;15603;50.878;8.036;2022-11-20T01:38:52;16.98;;;7.43;;
28353;SDS011;15603;50.878;8.036;2022-11-20T01:41:23;14.32;;;7.78;;
28353;SDS011;15603;50.878;8.036;2022-11-20T01:44:10;16.88;;;7.50;;
28353;SDS011;15603;50.878;8.036;2022-11-20T01:46:39;17.08;;;8.10;;
28353;SDS011;15603;50.878;8.036;2022-11-20T01:49:34;17.05;;;8.15;;
28353;SDS011;15603;50.878;8.036;2022-11-20T01:52:28;13.85;;;7.00;;
28353;SDS011;15603;50.878;8.036;2022-11-20T01:55:09;13.90;;;7.25;;
28353;SDS011;15603;50.878;8.036;2022-11-20T01:57:41;19.70;;;7.43;;
28353;SDS011;15603;50.878;8.036;2022-11-20T02:00:12;17.45;;;8.07;;
28353;SDS011;15603;50.878;8.036;2022-11-20T02:02:44;15.27;;;7.60;;
28353;SDS011;15603;50.878;8.036;2022-11-20T02:05:22;15.15;;;7.40;;
28353;SDS011;15603;50.878;8.036;2022-11-20T02:07:55;12.55;;;6.97;;
28353;SDS011;15603;50.878;8.036;2022-11-20T02:10:24;15.70;;;7.68;;
28353;SDS011;15603;50.878;8.036;2022-11-20T02:12:51;16.13;;;7.38;;
28353;SDS011;15603;50.878;8.036;2022-11-20T02:15:38;15.30;;;6.97;;
28353;SDS011;15603;50.878;8.036;2022-11-20T02:18:05;17.33;;;7.72;;
28353;SDS011;15603;50.878;8.036;2022-11-20T02:20:32;17.42;;;7.78;;
28353;SDS011;15603;50.878;8.036;2022-11-20T02:23:02;17.75;;;7.97;;
28353;SDS011;15603;50.878;8.036;2022-11-20T02:25:45;16.13;;;7.72;;
28353;SDS011;15603;50.878;8.036;2022-11-20T02:28:14;18.55;;;8.35;;
28353;SDS011;15603;50.878;8.036;2022-11-20T02:30:43;17.42;;;7.65;;
28353;SDS011;15603;50.878;8.036;2022-11-20T02:33:10;15.13;;;7.28;;
28353;SDS011;15603;50.878;8.036;2022-11-20T02:35:41;17.58;;;7.88;;
28353;SDS011;15603;50.878;8.036;2022-11-20T02:38:10;16.30;;;8.18;;
28353;SDS011;15603;50.878;8.036;2022-11-20T02:40:37;14.20;;;7.65;;
28353;SDS011;15603;50.878;8.036;2022-11-20T02:43:04;13.90;;;7.07;;
28353;SDS011;15603;50.878;8.036;2022-11-20T02:45:31;16.20;;;7.45;;
28353;SDS011;15603;50.878;8.036;2022-11-20T02:47:58;13.90;;;6.97;;
28353;SDS011;15603;50.878;8.036;2022-11-20T02:50:25;17.85;;;7.03;;
28353;SDS011;15603;50.878;8.036;2022-11-20T02:52:52;14.93;;;7.47;;
28353;SDS011;15603;50.878;8.036;2022-11-20T02:55:19;15.85;;;8.05;;
28353;SDS011;15603;50.878;8.036;2022-11-20T02:57:46;16.35;;;7.93;;
28353;SDS011;15603;50.878;8.036;2022-11-20T03:00:13;18.15;;;7.72;;
28353;SDS011;15603;50.878;8.036;2022-11-20T03:02:41;19.55;;;8.07;;
28353;SDS011;15603;50.878;8.036;2022-11-20T03:05:08;17.65;;;8.25;;
28353;SDS011;15603;50.878;8.036;2022-11-20T03:07:35;15.88;;;7.85;;
28353;SDS011;15603;50.878;8.036;2022-11-20T03:10:02;17.98;;;8.68;;
28353;SDS011;15603;50.878;8.036;2022-11-20T03:12:30;15.43;;;8.07;;
28353;SDS011;15603;50.878;8.036;2022-11-20T03:14:57;17.17;;;7.97;;
28353;SDS011;15603;50.878;8.036;2022-11-20T03:17:24;18.85;;;8.30;;
28353;SDS011;15603;50.878;8.036;2022-11-20T03:19:51;16.17;;;8.40;;
28353;SDS011;15603;50.878;8.036;2022-11-20T03:22:18;15.82;;;8.05;;
28353;SDS011;15603;50.878;8.036;2022-11-20T03:24:45;16.25;;;8.43;;
28353;SDS011;15603;50.878;8.036;2022-11-20T03:27:12;16.02;;;7.53;;
28353;SDS011;15603;50.878;8.036;2022-11-20T03:29:40;15.15;;;8.05;;
28353;SDS011;15603;50.878;8.036;2022-11-20T03:32:07;17.60;;;7.85;;
28353;SDS011;15603;50.878;8.036;2022-11-20T03:34:34;20.00;;;8.52;;
28353;SDS011;15603;50.878;8.036;2022-11-20T03:37:01;20.75;;;8.90;;
28353;SDS011;15603;50.878;8.036;2022-11-20T03:39:27;15.23;;;7.97;;
28353;SDS011;15603;50.878;8.036;2022-11-20T03:41:54;18.02;;;8.60;;
28353;SDS011;15603;50.878;8.036;2022-11-20T03:44:21;16.50;;;8.13;;
28353;SDS011;15603;50.878;8.036;2022-11-20T03:46:49;20.83;;;9.63;;
28353;SDS011;15603;50.878;8.036;2022-11-20T03:49:16;17.85;;;9.10;;
28353;SDS011;15603;50.878;8.036;2022-11-20T03:51:43;17.95;;;8.93;;
28353;SDS011;15603;50.878;8.036;2022-11-20T03:54:10;21.65;;;9.23;;
28353;SDS011;15603;50.878;8.036;2022-11-20T03:56:37;20.67;;;9.25;;
28353;SDS011;15603;50.878;8.036;2022-11-20T03:59:06;19.67;;;9.70;;
28353;SDS011;15603;50.878;8.036;2022-11-20T04:01:34;19.20;;;9.32;;
28353;SDS011;15603;50.878;8.036;2022-11-20T04:04:04;23.65;;;9.68;;
28353;SDS011;15603;50.878;8.036;2022-11-20T04:06:35;16.90;;;8.95;;
28353;SDS011;15603;50.878;8.036;2022-11-20T04:09:04;21.40;;;8.68;;
28353;SDS011;15603;50.878;8.036;2022-11-20T04:11:33;22.85;;;9.55;;
28353;SDS011;15603;50.878;8.036;2022-11-20T04:14:03;20.48;;;9.43;;
28353;SDS011;15603;50.878;8.036;2022-11-20T04:16:33;19.95;;;9.32;;
28353;SDS011;15603;50.878;8.036;2022-11-20T04:19:02;24.02;;;10.50;;
28353;SDS011;15603;50.878;8.036;2022-11-20T04:21:31;21.85;;;10.15;;
28353;SDS011;15603;50.878;8.036;2022-11-20T04:23:58;27.60;;;9.55;;
28353;SDS011;15603;50.878;8.036;2022-11-20T04:26:26;21.65;;;10.52;;
28353;SDS011;15603;50.878;8.036;2022-11-20T04:28:54;21.33;;;10.43;;
28353;SDS011;15603;50.878;8.036;2022-11-20T04:31:22;23.25;;;10.38;;
28353;SDS011;15603;50.878;8.036;2022-11-20T04:33:51;22.10;;;10.85;;
28353;SDS011;15603;50.878;8.036;2022-11-20T04:38:51;21.38;;;10.68;;
28353;SDS011;15603;50.878;8.036;2022-11-20T04:41:24;23.42;;;10.57;;
28353;SDS011;15603;50.878;8.036;2022-11-20T04:43:53;22.17;;;10.27;;
28353;SDS011;15603;50.878;8.036;2022-11-20T04:46:27;24.38;;;10.68;;
28353;SDS011;15603;50.878;8.036;2022-11-20T04:48:54;21.88;;;10.95;;
28353;SDS011;15603;50.878;8.036;2022-11-20T04:51:21;21.92;;;10.35;;
28353;SDS011;15603;50.878;8.036;2022-11-20T04:53:49;22.60;;;10.43;;
28353;SDS011;15603;50.878;8.036;2022-11-20T04:56:16;20.73;;;10.32;;
28353;SDS011;15603;50.878;8.036;2022-11-20T04:58:43;23.38;;;11.35;;
28353;SDS011;15603;50.878;8.036;2022-11-20T05:01:17;24.45;;;10.73;;
28353;SDS011;15603;50.878;8.036;2022-11-20T05:03:46;26.33;;;10.88;;
28353;SDS011;15603;50.878;8.036;2022-11-20T05:06:14;18.58;;;9.45;;
28353;SDS011;15603;50.878;8.036;2022-11-20T05:08:43;24.23;;;11.25;;
28353;SDS011;15603;50.878;8.036;2022-11-20T05:11:14;23.38;;;10.18;;
28353;SDS011;15603;50.878;8.036;2022-11-20T05:13:43;25.52;;;11.73;;
28353;SDS011;15603;50.878;8.036;2022-11-20T05:16:11;22.55;;;11.07;;
28353;SDS011;15603;50.878;8.036;2022-11-20T05:18:40;30.85;;;11.25;;
28353;SDS011;15603;50.878;8.036;2022-11-20T05:21:08;29.50;;;12.05;;
28353;SDS011;15603;50.878;8.036;2022-11-20T05:23:36;27.73;;;11.98;;
28353;SDS011;15603;50.878;8.036;2022-11-20T05:26:04;28.60;;;12.00;;
28353;SDS011;15603;50.878;8.036;2022-11-20T05:28:33;23.63;;;11.35;;
28353;SDS011;15603;50.878;8.036;2022-11-20T05:31:07;25.35;;;11.65;;
28353;SDS011;15603;50.878;8.036;2022-11-20T05:33:36;22.48;;;10.88;;
28353;SDS011;15603;50.878;8.036;2022-11-20T05:36:06;26.77;;;11.00;;
28353;SDS011;15603;50.878;8.036;2022-11-20T05:38:33;26.42;;;12.80;;
28353;SDS011;15603;50.878;8.036;2022-11-20T05:41:07;34.00;;;11.80;;
28353;SDS011;15603;50.878;8.036;2022-11-20T05:43:42;26.55;;;10.93;;
28353;SDS011;15603;50.878;8.036;2022-11-20T05:46:11;29.17;;;12.35;;
28353;SDS011;15603;50.878;8.036;2022-11-20T05:48:40;26.98;;;13.02;;
28353;SDS011;15603;50.878;8.036;2022-11-20T05:51:09;25.25;;;11.93;;
28353;SDS011;15603;50.878;8.036;2022-11-20T05:53:37;26.35;;;11.85;;
28353;SDS011;15603;50.878;8.036;2022-11-20T05:56:13;29.95;;;11.82;;
28353;SDS011;15603;50.878;8.036;2022-11-20T05:58:43;29.58;;;11.80;;
28353;SDS011;15603;50.878;8.036;2022-11-20T06:01:12;32.83;;;13.00;;
28353;SDS011;15603;50.878;8.036;2022-11-20T06:03:46;29.70;;;12.07;;
28353;SDS011;15603;50.878;8.036;2022-11-20T06:06:14;30.35;;;13.57;;
28353;SDS011;15603;50.878;8.036;2022-11-20T06:08:43;35.55;;;16.10;;
28353;SDS011;15603;50.878;8.036;2022-11-20T06:11:11;33.22;;;15.52;;
28353;SDS011;15603;50.878;8.036;2022-11-20T06:13:39;33.53;;;11.32;;
28353;SDS011;15603;50.878;8.036;2022-11-20T06:16:09;27.73;;;12.60;;
28353;SDS011;15603;50.878;8.036;2022-11-20T06:18:37;34.13;;;13.07;;
28353;SDS011;15603;50.878;8.036;2022-11-20T06:21:05;32.70;;;14.07;;
28353;SDS011;15603;50.878;8.036;2022-11-20T06:23:33;26.77;;;12.75;;
28353;SDS011;15603;50.878;8.036;2022-11-20T06:26:05;30.98;;;13.50;;
28353;SDS011;15603;50.878;8.036;2022-11-20T06:28:33;28.45;;;13.13;;
28353;SDS011;15603;50.878;8.036;2022-11-20T06:31:01;31.90;;;14.40;;
28353;SDS011;15603;50.878;8.036;2022-11-20T06:33:29;34.38;;;14.57;;
28353;SDS011;15603;50.878;8.036;2022-11-20T06:35:57;36.55;;;15.27;;
28353;SDS011;15603;50.878;8.036;2022-11-20T06:38:30;29.02;;;13.20;;
28353;SDS011;15603;50.878;8.036;2022-11-20T06:40:57;37.35;;;16.63;;
28353;SDS011;15603;50.878;8.036;2022-11-20T06:43:24;33.90;;;14.10;;
28353;SDS011;15603;50.878;8.036;2022-11-20T06:45:55;30.75;;;13.32;;
28353;SDS011;15603;50.878;8.036;2022-11-20T06:48:24;39.40;;;16.43;;
28353;SDS011;15603;50.878;8.036;2022-11-20T06:50:53;39.20;;;16.13;;
28353;SDS011;15603;50.878;8.036;2022-11-20T06:53:20;45.40;;;16.65;;
28353;SDS011;15603;50.878;8.036;2022-11-20T06:55:48;46.45;;;16.30;;
28353;SDS011;15603;50.878;8.036;2022-11-20T06:58:17;44.00;;;18.00;;
28353;SDS011;15603;50.878;8.036;2022-11-20T07:00:44;43.55;;;17.63;;
28353;SDS011;15603;50.878;8.036;2022-11-20T07:03:12;43.45;;;17.60;;
28353;SDS011;15603;50.878;8.036;2022-11-20T07:05:39;47.17;;;17.65;;
28353;SDS011;15603;50.878;8.036;2022-11-20T07:08:07;45.15;;;17.05;;
28353;SDS011;15603;50.878;8.036;2022-11-20T07:10:35;45.85;;;18.40;;
28353;SDS011;15603;50.878;8.036;2022-11-20T07:13:02;51.15;;;17.90;;
28353;SDS011;15603;50.878;8.036;2022-11-20T07:15:29;50.63;;;18.25;;
28353;SDS011;15603;50.878;8.036;2022-11-20T07:17:59;45.20;;;17.02;;
28353;SDS011;15603;50.878;8.036;2022-11-20T07:20:26;44.47;;;17.42;;
28353;SDS011;15603;50.878;8.036;2022-11-20T07:22:54;40.85;;;16.83;;
28353;SDS011;15603;50.878;8.036;2022-11-20T07:25:22;44.90;;;17.27;;
28353;SDS011;15603;50.878;8.036;2022-11-20T07:27:57;39.15;;;17.35;;
28353;SDS011;15603;50.878;8.036;2022-11-20T07:30:25;46.47;;;17.85;;
28353;SDS011;15603;50.878;8.036;2022-11-20T07:32:54;50.95;;;18.83;;
28353;SDS011;15603;50.878;8.036;2022-11-20T07:35:22;46.13;;;18.38;;
28353;SDS011;15603;50.878;8.036;2022-11-20T07:37:50;47.63;;;18.80;;
28353;SDS011;15603;50.878;8.036;2022-11-20T07:40:17;51.22;;;18.83;;
28353;SDS011;15603;50.878;8.036;2022-11-20T07:42:52;48.50;;;18.17;;
28353;SDS011;15603;50.878;8.036;2022-11-20T07:45:21;45.60;;;17.17;;
28353;SDS011;15603;50.878;8.036;2022-11-20T07:47:50;42.47;;;17.85;;
28353;SDS011;15603;50.878;8.036;2022-11-20T07:50:17;47.97;;;17.55;;
28353;SDS011;15603;50.878;8.036;2022-11-20T07:52:45;50.63;;;18.83;;
28353;SDS011;15603;50.878;8.036;2022-11-20T07:55:12;46.50;;;18.15;;
28353;SDS011;15603;50.878;8.036;2022-11-20T07:57:40;44.50;;;18.55;;
28353;SDS011;15603;50.878;8.036;2022-11-20T08:00:08;41.78;;;18.45;;
28353;SDS011;15603;50.878;8.036;2022-11-20T08:02:40;44.78;;;17.70;;
28353;SDS011;15603;50.878;8.036;2022-11-20T08:05:08;37.25;;;16.35;;
28353;SDS011;15603;50.878;8.036;2022-11-20T08:07:37;44.53;;;18.70;;
28353;SDS011;15603;50.878;8.036;2022-11-20T08:10:05;48.10;;;18.15;;
28353;SDS011;15603;50.878;8.036;2022-11-20T08:12:33;49.08;;;18.77;;
28353;SDS011;15603;50.878;8.036;2022-11-20T08:15:19;48.60;;;17.80;;
28353;SDS011;15603;50.878;8.036;2022-11-20T08:17:46;42.05;;;17.65;;
28353;SDS011;15603;50.878;8.036;2022-11-20T08:20:34;48.05;;;18.50;;
28353;SDS011;15603;50.878;8.036;2022-11-20T08:23:01;45.10;;;17.73;;
28353;SDS011;15603;50.878;8.036;2022-11-20T08:25:30;42.47;;;17.15;;
28353;SDS011;15603;50.878;8.036;2022-11-20T08:27:58;39.92;;;17.40;;
28353;SDS011;15603;50.878;8.036;2022-11-20T08:30:32;45.78;;;16.98;;
28353;SDS011;15603;50.878;8.036;2022-11-20T08:33:05;37.05;;;15.55;;
28353;SDS011;15603;50.878;8.036;2022-11-20T08:35:35;39.90;;;16.08;;
28353;SDS011;15603;50.878;8.036;2022-11-20T08:38:03;40.45;;;16.15;;
28353;SDS011;15603;50.878;8.036;2022-11-20T08:40:31;34.03;;;15.95;;
28353;SDS011;15603;50.878;8.036;2022-11-20T08:42:59;44.58;;;16.20;;
28353;SDS011;15603;50.878;8.036;2022-11-20T08:45:26;36.00;;;15.68;;
28353;SDS011;15603;50.878;8.036;2022-11-20T08:48:00;33.10;;;14.35;;
28353;SDS011;15603;50.878;8.036;2022-11-20T08:50:28;33.97;;;14.20;;
28353;SDS011;15603;50.878;8.036;2022-11-20T08:53:03;38.10;;;14.10;;
28353;SDS011;15603;50.878;8.036;2022-11-20T08:55:31;32.83;;;14.52;;
28353;SDS011;15603;50.878;8.036;2022-11-20T08:58:02;37.35;;;14.85;;
28353;SDS011;15603;50.878;8.036;2022-11-20T09:00:30;39.10;;;15.98;;
28353;SDS011;15603;50.878;8.036;2022-11-20T09:02:57;35.60;;;14.50;;
28353;SDS011;15603;50.878;8.036;2022-11-20T09:05:25;29.60;;;13.25;;
28353;SDS011;15603;50.878;8.036;2022-11-20T09:07:55;31.30;;;13.50;;
28353;SDS011;15603;50.878;8.036;2022-11-20T09:10:22;28.17;;;13.27;;
28353;SDS011;15603;50.878;8.036;2022-11-20T09:12:51;30.92;;;12.98;;
28353;SDS011;15603;50.878;8.036;2022-11-20T09:15:19;30.63;;;12.55;;
28353;SDS011;15603;50.878;8.036;2022-11-20T09:20:19;31.00;;;13.15;;
28353;SDS011;15603;50.878;8.036;2022-11-20T09:22:46;33.05;;;12.05;;
28353;SDS011;15603;50.878;8.036;2022-11-20T09:25:14;25.75;;;11.45;;
28353;SDS011;15603;50.878;8.036;2022-11-20T09:27:41;25.08;;;11.65;;
28353;SDS011;15603;50.878;8.036;2022-11-20T09:30:10;29.20;;;12.60;;
28353;SDS011;15603;50.878;8.036;2022-11-20T09:32:38;25.00;;;11.63;;
28353;SDS011;15603;50.878;8.036;2022-11-20T09:35:06;27.52;;;11.77;;
28353;SDS011;15603;50.878;8.036;2022-11-20T09:37:34;26.70;;;11.82;;
28353;SDS011;15603;50.878;8.036;2022-11-20T09:40:01;27.95;;;12.30;;
28353;SDS011;15603;50.878;8.036;2022-11-20T09:42:48;25.75;;;12.25;;
28353;SDS011;15603;50.878;8.036;2022-11-20T09:48:26;27.85;;;11.25;;
28353;SDS011;15603;50.878;8.036;2022-11-20T09:56:50;27.42;;;10.93;;
28353;SDS011;15603;50.878;8.036;2022-11-20T09:59:25;23.90;;;9.88;;
28353;SDS011;15603;50.878;8.036;2022-11-20T10:01:59;25.35;;;9.90;;
28353;SDS011;15603;50.878;8.036;2022-11-20T10:04:29;20.90;;;9.48;;
28353;SDS011;15603;50.878;8.036;2022-11-20T10:07:07;22.25;;;10.30;;
28353;SDS011;15603;50.878;8.036;2022-11-20T10:09:58;23.35;;;11.25;;
28353;SDS011;15603;50.878;8.036;2022-11-20T10:12:32;25.45;;;9.48;;
28353;SDS011;15603;50.878;8.036;2022-11-20T10:18:21;18.15;;;8.40;;
28353;SDS011;15603;50.878;8.036;2022-11-20T10:23:52;19.02;;;8.48;;
28353;SDS011;15603;50.878;8.036;2022-11-20T10:31:41;15.65;;;8.18;;
28353;SDS011;15603;50.878;8.036;2022-11-20T10:37:11;21.38;;;9.65;;
28353;SDS011;15603;50.878;8.036;2022-11-20T10:40:00;16.30;;;8.27;;
28353;SDS011;15603;50.878;8.036;2022-11-20T10:42:43;16.27;;;7.60;;
28353;SDS011;15603;50.878;8.036;2022-11-20T10:45:22;18.15;;;9.20;;
28353;SDS011;15603;50.878;8.036;2022-11-20T10:50:49;15.18;;;7.68;;
28353;SDS011;15603;50.878;8.036;2022-11-20T10:56:22;17.17;;;8.02;;
28353;SDS011;15603;50.878;8.036;2022-11-20T11:01:54;18.95;;;7.70;;
28353;SDS011;15603;50.878;8.036;2022-11-20T11:07:12;14.27;;;6.97;;
28353;SDS011;15603;50.878;8.036;2022-11-20T11:09:44;17.08;;;7.78;;
28353;SDS011;15603;50.878;8.036;2022-11-20T11:12:14;16.77;;;7.40;;
28353;SDS011;15603;50.878;8.036;2022-11-20T11:14:43;16.45;;;7.18;;
28353;SDS011;15603;50.878;8.036;2022-11-20T11:17:27;13.57;;;7.18;;
28353;SDS011;15603;50.878;8.036;2022-11-20T11:22:31;15.25;;;7.90;;
28353;SDS011;15603;50.878;8.036;2022-11-20T11:24:59;17.00;;;7.07;;
28353;SDS011;15603;50.878;8.036;2022-11-20T11:27:27;15.70;;;7.63;;
28353;SDS011;15603;50.878;8.036;2022-11-20T11:30:11;14.40;;;7.60;;
28353;SDS011;15603;50.878;8.036;2022-11-20T11:32:41;14.10;;;7.03;;
28353;SDS011;15603;50.878;8.036;2022-11-20T11:35:30;15.38;;;8.70;;
28353;SDS011;15603;50.878;8.036;2022-11-20T11:38:11;17.05;;;8.50;;
28353;SDS011;15603;50.878;8.036;2022-11-20T11:40:42;18.48;;;8.68;;
28353;SDS011;15603;50.878;8.036;2022-11-20T11:43:18;17.10;;;8.88;;
28353;SDS011;15603;50.878;8.036;2022-11-20T11:48:57;22.73;;;9.48;;
28353;SDS011;15603;50.878;8.036;2022-11-20T11:52:12;21.10;;;9.23;;
28353;SDS011;15603;50.878;8.036;2022-11-20T11:54:45;23.90;;;10.18;;
28353;SDS011;15603;50.878;8.036;2022-11-20T12:00:35;19.73;;;9.68;;
28353;SDS011;15603;50.878;8.036;2022-11-20T12:03:11;21.50;;;9.60;;
28353;SDS011;15603;50.878;8.036;2022-11-20T12:05:45;22.05;;;9.75;;
28353;SDS011;15603;50.878;8.036;2022-11-20T12:11:03;21.55;;;9.70;;
28353;SDS011;15603;50.878;8.036;2022-11-20T12:16:00;23.85;;;10.57;;
28353;SDS011;15603;50.878;8.036;2022-11-20T12:18:29;23.35;;;10.88;;
28353;SDS011;15603;50.878;8.036;2022-11-20T12:24:25;24.60;;;11.50;;
28353;SDS011;15603;50.878;8.036;2022-11-20T12:29:43;25.52;;;11.13;;
28353;SDS011;15603;50.878;8.036;2022-11-20T12:42:49;27.27;;;12.32;;
28353;SDS011;15603;50.878;8.036;2022-11-20T12:48:19;26.45;;;13.25;;
28353;SDS011;15603;50.878;8.036;2022-11-20T12:51:15;33.03;;;15.63;;
28353;SDS011;15603;50.878;8.036;2022-11-20T12:57:09;31.25;;;13.32;;
28353;SDS011;15603;50.878;8.036;2022-11-20T13:05:31;30.45;;;12.48;;
28353;SDS011;15603;50.878;8.036;2022-11-20T13:08:03;26.42;;;12.88;;
28353;SDS011;15603;50.878;8.036;2022-11-20T13:13:31;28.40;;;14.00;;
28353;SDS011;15603;50.878;8.036;2022-11-20T13:16:11;33.22;;;14.50;;
28353;SDS011;15603;50.878;8.036;2022-11-20T13:18:40;36.33;;;13.10;;
28353;SDS011;15603;50.878;8.036;2022-11-20T13:21:13;29.77;;;13.77;;
28353;SDS011;15603;50.878;8.036;2022-11-20T13:23:44;35.97;;;15.57;;
28353;SDS011;15603;50.878;8.036;2022-11-20T13:26:19;29.42;;;13.32;;
28353;SDS011;15603;50.878;8.036;2022-11-20T13:29:11;28.85;;;12.88;;
28353;SDS011;15603;50.878;8.036;2022-11-20T13:31:39;28.77;;;12.93;;
28353;SDS011;15603;50.878;8.036;2022-11-20T13:34:21;25.80;;;12.50;;
28353;SDS011;15603;50.878;8.036;2022-11-20T13:36:53;31.55;;;13.55;;
28353;SDS011;15603;50.878;8.036;2022-11-20T13:39:33;23.63;;;11.23;;
28353;SDS011;15603;50.878;8.036;2022-11-20T13:44:38;27.23;;;12.77;;
28353;SDS011;15603;50.878;8.036;2022-11-20T13:47:25;26.83;;;13.57;;
28353;SDS011;15603;50.878;8.036;2022-11-20T13:49:55;27.98;;;12.30;;
28353;SDS011;15603;50.878;8.036;2022-11-20T13:52:39;27.38;;;12.65;;
28353;SDS011;15603;50.878;8.036;2022-11-20T13:58:04;28.48;;;12.60;;
28353;SDS011;15603;50.878;8.036;2022-11-20T14:00:54;30.65;;;12.88;;
28353;SDS011;15603;50.878;8.036;2022-11-20T14:03:25;32.97;;;14.07;;
28353;SDS011;15603;50.878;8.036;2022-11-20T14:07:03;29.55;;;13.40;;
28353;SDS011;15603;50.878;8.036;2022-11-20T14:09:12;36.25;;;14.80;;
28353;SDS011;15603;50.878;8.036;2022-11-20T14:11:51;29.10;;;12.90;;
28353;SDS011;15603;50.878;8.036;2022-11-20T14:14:19;35.47;;;15.93;;
28353;SDS011;15603;50.878;8.036;2022-11-20T14:16:48;33.25;;;14.93;;
28353;SDS011;15603;50.878;8.036;2022-11-20T14:21:50;28.98;;;14.32;;
28353;SDS011;15603;50.878;8.036;2022-11-20T14:24:20;38.95;;;16.25;;
28353;SDS011;15603;50.878;8.036;2022-11-20T14:26:50;34.70;;;14.32;;
28353;SDS011;15603;50.878;8.036;2022-11-20T14:29:26;35.88;;;15.27;;
28353;SDS011;15603;50.878;8.036;2022-11-20T14:31:56;29.08;;;13.15;;
28353;SDS011;15603;50.878;8.036;2022-11-20T14:34:24;33.22;;;14.63;;
28353;SDS011;15603;50.878;8.036;2022-11-20T14:37:02;30.52;;;13.38;;
28353;SDS011;15603;50.878;8.036;2022-11-20T14:39:33;29.67;;;14.15;;
28353;SDS011;15603;50.878;8.036;2022-11-20T14:42:02;35.40;;;14.50;;
28353;SDS011;15603;50.878;8.036;2022-11-20T14:44:40;32.63;;;14.32;;
28353;SDS011;15603;50.878;8.036;2022-11-20T14:47:10;29.40;;;13.77;;
28353;SDS011;15603;50.878;8.036;2022-11-20T14:49:39;33.15;;;14.95;;
28353;SDS011;15603;50.878;8.036;2022-11-20T14:52:20;31.05;;;13.63;;
28353;SDS011;15603;50.878;8.036;2022-11-20T14:54:50;33.95;;;14.60;;
28353;SDS011;15603;50.878;8.036;2022-11-20T14:57:28;36.92;;;15.20;;
28353;SDS011;15603;50.878;8.036;2022-11-20T15:00:31;30.58;;;13.52;;
28353;SDS011;15603;50.878;8.036;2022-11-20T15:02:51;29.48;;;13.45;;
28353;SDS011;15603;50.878;8.036;2022-11-20T15:05:23;32.60;;;14.35;;
28353;SDS011;15603;50.878;8.036;2022-11-20T15:08:06;30.63;;;13.93;;
28353;SDS011;15603;50.878;8.036;2022-11-20T15:10:35;35.25;;;15.68;;
28353;SDS011;15603;50.878;8.036;2022-11-20T15:13:02;33.33;;;13.57;;
28353;SDS011;15603;50.878;8.036;2022-11-20T15:15:51;31.95;;;13.27;;
28353;SDS011;15603;50.878;8.036;2022-11-20T15:18:22;30.75;;;14.75;;
28353;SDS011;15603;50.878;8.036;2022-11-20T15:21:06;33.85;;;14.82;;
28353;SDS011;15603;50.878;8.036;2022-11-20T15:23:38;34.63;;;13.13;;
28353;SDS011;15603;50.878;8.036;2022-11-20T15:26:05;32.03;;;13.02;;
28353;SDS011;15603;50.878;8.036;2022-11-20T15:28:34;33.75;;;13.70;;
28353;SDS011;15603;50.878;8.036;2022-11-20T15:31:03;28.02;;;12.68;;
28353;SDS011;15603;50.878;8.036;2022-11-20T15:33:31;31.90;;;13.25;;
28353;SDS011;15603;50.878;8.036;2022-11-20T15:35:59;33.88;;;13.48;;
28353;SDS011;15603;50.878;8.036;2022-11-20T15:38:27;31.90;;;13.27;;
28353;SDS011;15603;50.878;8.036;2022-11-20T15:40:54;29.05;;;13.52;;
28353;SDS011;15603;50.878;8.036;2022-11-20T15:43:21;31.92;;;14.45;;
28353;SDS011;15603;50.878;8.036;2022-11-20T15:45:49;32.97;;;13.00;;
28353;SDS011;15603;50.878;8.036;2022-11-20T15:49:02;36.80;;;14.85;;
28353;SDS011;15603;50.878;8.036;2022-11-20T15:51:19;32.85;;;14.57;;
28353;SDS011;15603;50.878;8.036;2022-11-20T15:53:55;37.63;;;15.82;;
28353;SDS011;15603;50.878;8.036;2022-11-20T15:56:23;32.22;;;14.70;;
28353;SDS011;15603;50.878;8.036;2022-11-20T15:58:50;47.40;;;19.50;;
28353;SDS011;15603;50.878;8.036;2022-11-20T16:01:18;31.10;;;14.88;;
28353;SDS011;15603;50.878;8.036;2022-11-20T16:03:48;33.70;;;14.07;;
28353;SDS011;15603;50.878;8.036;2022-11-20T16:06:15;34.72;;;14.30;;
28353;SDS011;15603;50.878;8.036;2022-11-20T16:08:45;30.70;;;13.23;;
28353;SDS011;15603;50.878;8.036;2022-11-20T16:11:13;30.67;;;14.18;;
28353;SDS011;15603;50.878;8.036;2022-11-20T16:13:42;37.20;;;14.68;;
28353;SDS011;15603;50.878;8.036;2022-11-20T16:16:29;26.15;;;12.48;;
28353;SDS011;15603;50.878;8.036;2022-11-20T16:18:58;28.73;;;12.70;;
28353;SDS011;15603;50.878;8.036;2022-11-20T16:21:27;34.22;;;14.07;;
28353;SDS011;15603;50.878;8.036;2022-11-20T16:24:01;28.48;;;14.20;;
28353;SDS011;15603;50.878;8.036;2022-11-20T16:26:30;27.20;;;12.95;;